aviador You're here:

KLDJ Decoded Metar

in _UNIDENTIFIED
Report Time2017-10-17 20:35:00
UTC Time2017-10-17 20:18:05
Flight Rules vfr VFR
WindCalm
Visibility9999 m
Phenomena:N/A
Clouds:N/A
Expected CloudBase > 6,800 ft AGL from Temp-Dew spread
CeilingNone
Temp16°C (ISA +1)
Dew Point-1°C (31% RH)
AAT13.9°C
QNH1025 hPa
Density Alt-177 ft
Elevation23 ft
Report Wrong Elevation
Raw Report
KLDJ 172035Z AUTO 00000KT 10SM CLR 16/M01 A3026 RMK AO2
T01561007=

Extra information for KLDJ:More info

Metar Taf Metar & Taf Last 4 Metars F.Rules Stats Wind Profile Meteogram Temp Stats Metar ALERT Operation Metar Decoded Social comments